sensor_id;sensor_type;location;lat;lon;timestamp;pressure;altitude;pressure_sealevel;temperature;humidity
39949;BME280;29070;48.102;-1.652;2023-10-31T00:04:14;99687.44;;;10.95;85.42
39949;BME280;29070;48.102;-1.652;2023-10-31T00:09:14;99692.56;;;10.90;85.51
39949;BME280;29070;48.102;-1.652;2023-10-31T00:14:15;99700.66;;;10.88;85.37
39949;BME280;29070;48.102;-1.652;2023-10-31T00:19:15;99709.31;;;10.89;85.48
39949;BME280;29070;48.102;-1.652;2023-10-31T00:24:16;99708.53;;;10.88;85.49
39949;BME280;29070;48.102;-1.652;2023-10-31T00:29:16;99716.84;;;10.85;85.74
39949;BME280;29070;48.102;-1.652;2023-10-31T00:34:17;99723.13;;;10.84;85.68
39949;BME280;29070;48.102;-1.652;2023-10-31T00:39:17;99719.72;;;10.84;85.74
39949;BME280;29070;48.102;-1.652;2023-10-31T00:44:18;99728.59;;;10.83;85.86
39949;BME280;29070;48.102;-1.652;2023-10-31T00:49:19;99726.63;;;10.78;85.86
39949;BME280;29070;48.102;-1.652;2023-10-31T00:54:19;99737.47;;;10.82;86.08
39949;BME280;29070;48.102;-1.652;2023-10-31T00:59:19;99740.72;;;10.84;86.05
39949;BME280;29070;48.102;-1.652;2023-10-31T01:04:20;99739.88;;;10.83;86.04
39949;BME280;29070;48.102;-1.652;2023-10-31T01:09:21;99751.31;;;10.89;86.20
39949;BME280;29070;48.102;-1.652;2023-10-31T01:14:22;99742.00;;;10.93;86.16
39949;BME280;29070;48.102;-1.652;2023-10-31T01:19:22;99746.00;;;10.96;86.24
39949;BME280;29070;48.102;-1.652;2023-10-31T01:24:23;99757.22;;;11.03;86.21
39949;BME280;29070;48.102;-1.652;2023-10-31T01:29:23;99773.34;;;11.06;86.26
39949;BME280;29070;48.102;-1.652;2023-10-31T01:34:23;99783.84;;;11.06;86.26
39949;BME280;29070;48.102;-1.652;2023-10-31T01:39:24;99780.06;;;11.02;86.35
39949;BME280;29070;48.102;-1.652;2023-10-31T01:44:24;99791.22;;;10.98;86.38
39949;BME280;29070;48.102;-1.652;2023-10-31T01:49:25;99800.91;;;10.97;86.39
39949;BME280;29070;48.102;-1.652;2023-10-31T01:54:25;99797.34;;;10.92;86.25
39949;BME280;29070;48.102;-1.652;2023-10-31T01:59:26;99812.16;;;10.86;86.24
39949;BME280;29070;48.102;-1.652;2023-10-31T02:04:27;99810.41;;;10.80;86.35
39949;BME280;29070;48.102;-1.652;2023-10-31T02:09:27;99825.50;;;10.84;86.38
39949;BME280;29070;48.102;-1.652;2023-10-31T02:14:30;99830.97;;;10.83;86.31
39949;BME280;29070;48.102;-1.652;2023-10-31T02:19:30;99839.06;;;10.81;86.24
39949;BME280;29070;48.102;-1.652;2023-10-31T02:24:30;99856.78;;;10.86;86.37
39949;BME280;29070;48.102;-1.652;2023-10-31T02:29:30;99853.59;;;10.84;86.35
39949;BME280;29070;48.102;-1.652;2023-10-31T02:34:31;99860.84;;;10.82;86.38
39949;BME280;29070;48.102;-1.652;2023-10-31T02:39:31;99865.09;;;10.83;86.25
39949;BME280;29070;48.102;-1.652;2023-10-31T02:44:31;99879.97;;;10.89;86.60
39949;BME280;29070;48.102;-1.652;2023-10-31T02:49:32;99874.28;;;10.92;86.66
39949;BME280;29070;48.102;-1.652;2023-10-31T02:54:32;99874.28;;;10.92;86.62
39949;BME280;29070;48.102;-1.652;2023-10-31T02:59:32;99887.63;;;10.91;86.53
39949;BME280;29070;48.102;-1.652;2023-10-31T03:04:33;99888.66;;;10.90;86.56
39949;BME280;29070;48.102;-1.652;2023-10-31T03:09:33;99893.56;;;10.86;86.58
39949;BME280;29070;48.102;-1.652;2023-10-31T03:14:33;99908.09;;;10.82;86.37
39949;BME280;29070;48.102;-1.652;2023-10-31T03:19:34;99910.22;;;10.73;86.60
39949;BME280;29070;48.102;-1.652;2023-10-31T03:24:34;99908.66;;;10.65;86.30
39949;BME280;29070;48.102;-1.652;2023-10-31T03:29:34;99918.41;;;10.58;86.33
39949;BME280;29070;48.102;-1.652;2023-10-31T03:34:35;99931.00;;;10.49;86.26
39949;BME280;29070;48.102;-1.652;2023-10-31T03:39:35;99936.31;;;10.43;86.25
39949;BME280;29070;48.102;-1.652;2023-10-31T03:44:35;99934.53;;;10.37;86.55
39949;BME280;29070;48.102;-1.652;2023-10-31T03:49:41;99939.56;;;10.38;86.44
39949;BME280;29070;48.102;-1.652;2023-10-31T03:54:42;99940.81;;;10.36;86.55
39949;BME280;29070;48.102;-1.652;2023-10-31T03:59:42;99950.09;;;10.32;86.47
39949;BME280;29070;48.102;-1.652;2023-10-31T04:04:42;99962.78;;;10.28;86.84
39949;BME280;29070;48.102;-1.652;2023-10-31T04:09:43;99965.84;;;10.25;86.29
39949;BME280;29070;48.102;-1.652;2023-10-31T04:14:43;99974.72;;;10.24;86.33
39949;BME280;29070;48.102;-1.652;2023-10-31T04:19:43;99986.06;;;10.18;86.35
39949;BME280;29070;48.102;-1.652;2023-10-31T04:24:44;99995.94;;;10.16;86.26
39949;BME280;29070;48.102;-1.652;2023-10-31T04:29:44;99991.75;;;10.08;86.08
39949;BME280;29070;48.102;-1.652;2023-10-31T04:34:45;100005.47;;;10.10;86.64
39949;BME280;29070;48.102;-1.652;2023-10-31T04:39:45;100015.16;;;10.09;86.69
39949;BME280;29070;48.102;-1.652;2023-10-31T04:44:46;100022.22;;;10.09;86.81
39949;BME280;29070;48.102;-1.652;2023-10-31T04:49:46;100038.16;;;10.07;87.27
39949;BME280;29070;48.102;-1.652;2023-10-31T04:54:46;100040.38;;;10.04;87.11
39949;BME280;29070;48.102;-1.652;2023-10-31T04:59:46;100040.78;;;10.01;87.27
39949;BME280;29070;48.102;-1.652;2023-10-31T05:04:47;100041.81;;;10.00;87.50
39949;BME280;29070;48.102;-1.652;2023-10-31T05:09:50;100055.94;;;9.99;87.37
39949;BME280;29070;48.102;-1.652;2023-10-31T05:14:51;100054.50;;;9.96;87.12
39949;BME280;29070;48.102;-1.652;2023-10-31T05:19:51;100063.00;;;9.91;87.34
39949;BME280;29070;48.102;-1.652;2023-10-31T05:24:52;100068.88;;;9.87;87.20
39949;BME280;29070;48.102;-1.652;2023-10-31T05:29:52;100074.53;;;9.84;87.36
39949;BME280;29070;48.102;-1.652;2023-10-31T05:34:52;100065.25;;;9.81;86.96
39949;BME280;29070;48.102;-1.652;2023-10-31T05:39:53;100090.03;;;9.85;87.31
39949;BME280;29070;48.102;-1.652;2023-10-31T05:44:54;100082.59;;;9.82;87.12
39949;BME280;29070;48.102;-1.652;2023-10-31T05:49:55;100080.78;;;9.83;87.21
39949;BME280;29070;48.102;-1.652;2023-10-31T05:54:55;100097.50;;;9.82;87.45
39949;BME280;29070;48.102;-1.652;2023-10-31T05:59:56;100110.41;;;9.83;87.46
39949;BME280;29070;48.102;-1.652;2023-10-31T06:04:56;100111.63;;;9.81;87.40
39949;BME280;29070;48.102;-1.652;2023-10-31T06:09:57;100117.69;;;9.81;87.20
39949;BME280;29070;48.102;-1.652;2023-10-31T06:14:57;100121.09;;;9.82;87.29
39949;BME280;29070;48.102;-1.652;2023-10-31T06:19:57;100125.94;;;9.78;87.46
39949;BME280;29070;48.102;-1.652;2023-10-31T06:24:58;100130.78;;;9.81;87.37
39949;BME280;29070;48.102;-1.652;2023-10-31T06:29:58;100138.66;;;9.81;87.58
39949;BME280;29070;48.102;-1.652;2023-10-31T06:34:58;100140.25;;;9.82;87.45
39949;BME280;29070;48.102;-1.652;2023-10-31T06:39:59;100157.38;;;9.85;87.66
39949;BME280;29070;48.102;-1.652;2023-10-31T06:44:59;100158.81;;;9.87;87.71
39949;BME280;29070;48.102;-1.652;2023-10-31T06:49:59;100168.28;;;9.88;87.80
39949;BME280;29070;48.102;-1.652;2023-10-31T06:54:59;100181.97;;;9.90;87.78
39949;BME280;29070;48.102;-1.652;2023-10-31T07:00:00;100177.34;;;9.92;87.78
39949;BME280;29070;48.102;-1.652;2023-10-31T07:05:00;100182.19;;;9.96;87.92
39949;BME280;29070;48.102;-1.652;2023-10-31T07:10:01;100199.53;;;9.97;87.86
39949;BME280;29070;48.102;-1.652;2023-10-31T07:15:01;100200.72;;;10.01;88.05
39949;BME280;29070;48.102;-1.652;2023-10-31T07:20:02;100206.97;;;10.06;87.92
39949;BME280;29070;48.102;-1.652;2023-10-31T07:25:02;100210.00;;;10.10;87.98
39949;BME280;29070;48.102;-1.652;2023-10-31T07:30:03;100223.69;;;10.12;88.08
39949;BME280;29070;48.102;-1.652;2023-10-31T07:35:06;100225.53;;;10.18;87.95
39949;BME280;29070;48.102;-1.652;2023-10-31T07:40:07;100233.59;;;10.23;88.14
39949;BME280;29070;48.102;-1.652;2023-10-31T07:45:07;100245.47;;;10.26;88.01
39949;BME280;29070;48.102;-1.652;2023-10-31T07:50:08;100246.91;;;10.28;88.22
39949;BME280;29070;48.102;-1.652;2023-10-31T07:55:09;100266.28;;;10.34;88.20
39949;BME280;29070;48.102;-1.652;2023-10-31T08:00:12;100263.44;;;10.42;88.16
39949;BME280;29070;48.102;-1.652;2023-10-31T08:05:12;100270.50;;;10.55;88.26
39949;BME280;29070;48.102;-1.652;2023-10-31T08:10:13;100277.31;;;10.70;88.46
39949;BME280;29070;48.102;-1.652;2023-10-31T08:15:13;100273.44;;;10.79;88.45
39949;BME280;29070;48.102;-1.652;2023-10-31T08:20:15;100278.81;;;10.97;88.64
39949;BME280;29070;48.102;-1.652;2023-10-31T08:25:15;100283.78;;;11.19;88.98
39949;BME280;29070;48.102;-1.652;2023-10-31T08:30:16;100302.03;;;11.45;89.16
39949;BME280;29070;48.102;-1.652;2023-10-31T08:35:16;100293.00;;;11.67;89.12
39949;BME280;29070;48.102;-1.652;2023-10-31T08:40:16;100305.69;;;11.76;88.95
39949;BME280;29070;48.102;-1.652;2023-10-31T08:45:17;100315.94;;;11.85;88.74
39949;BME280;29070;48.102;-1.652;2023-10-31T08:50:17;100315.25;;;12.02;88.81
39949;BME280;29070;48.102;-1.652;2023-10-31T08:55:17;100321.09;;;12.30;89.09
39949;BME280;29070;48.102;-1.652;2023-10-31T09:00:18;100330.38;;;12.57;89.02
39949;BME280;29070;48.102;-1.652;2023-10-31T09:05:19;100335.94;;;12.86;88.94
39949;BME280;29070;48.102;-1.652;2023-10-31T09:10:19;100343.09;;;12.97;88.33
39949;BME280;29070;48.102;-1.652;2023-10-31T09:15:20;100339.09;;;12.95;88.07
39949;BME280;29070;48.102;-1.652;2023-10-31T09:20:21;100348.34;;;13.16;87.95
39949;BME280;29070;48.102;-1.652;2023-10-31T09:25:21;100355.38;;;13.41;87.84
39949;BME280;29070;48.102;-1.652;2023-10-31T09:30:22;100361.75;;;13.51;87.54
39949;BME280;29070;48.102;-1.652;2023-10-31T09:35:22;100361.22;;;13.61;87.12
39949;BME280;29070;48.102;-1.652;2023-10-31T09:40:23;100350.16;;;13.83;87.19
39949;BME280;29070;48.102;-1.652;2023-10-31T09:45:23;100362.13;;;13.97;86.77
39949;BME280;29070;48.102;-1.652;2023-10-31T09:50:23;100365.97;;;14.13;86.60
39949;BME280;29070;48.102;-1.652;2023-10-31T09:55:24;100372.41;;;14.29;86.58
39949;BME280;29070;48.102;-1.652;2023-10-31T10:00:25;100375.97;;;14.46;85.96
39949;BME280;29070;48.102;-1.652;2023-10-31T10:05:26;100379.44;;;14.71;85.79
39949;BME280;29070;48.102;-1.652;2023-10-31T10:10:26;100385.88;;;14.75;85.35
39949;BME280;29070;48.102;-1.652;2023-10-31T10:15:27;100390.78;;;14.95;85.19
39949;BME280;29070;48.102;-1.652;2023-10-31T10:20:27;100387.13;;;14.96;85.08
39949;BME280;29070;48.102;-1.652;2023-10-31T10:25:27;100391.34;;;14.97;84.79
39949;BME280;29070;48.102;-1.652;2023-10-31T10:30:29;100384.47;;;14.96;84.72
39949;BME280;29070;48.102;-1.652;2023-10-31T10:35:29;100392.88;;;14.93;84.63
39949;BME280;29070;48.102;-1.652;2023-10-31T10:40:30;100380.00;;;14.96;84.72
39949;BME280;29070;48.102;-1.652;2023-10-31T10:45:30;100374.47;;;15.10;84.78
39949;BME280;29070;48.102;-1.652;2023-10-31T10:50:33;100384.53;;;15.24;84.64
39949;BME280;29070;48.102;-1.652;2023-10-31T10:55:39;100390.03;;;15.35;84.60
39949;BME280;29070;48.102;-1.652;2023-10-31T11:00:39;100403.69;;;15.43;84.36
39949;BME280;29070;48.102;-1.652;2023-10-31T11:05:40;100399.06;;;15.51;84.16
39949;BME280;29070;48.102;-1.652;2023-10-31T11:10:41;100407.91;;;15.56;83.88
39949;BME280;29070;48.102;-1.652;2023-10-31T11:15:42;100402.00;;;15.66;83.80
39949;BME280;29070;48.102;-1.652;2023-10-31T11:20:43;100410.16;;;15.76;83.61
39949;BME280;29070;48.102;-1.652;2023-10-31T11:25:44;100401.97;;;15.78;83.50
39949;BME280;29070;48.102;-1.652;2023-10-31T11:30:50;100398.78;;;15.76;83.16
39949;BME280;29070;48.102;-1.652;2023-10-31T11:36:01;100401.44;;;15.76;83.07
39949;BME280;29070;48.102;-1.652;2023-10-31T11:41:04;100391.81;;;15.87;83.14
39949;BME280;29070;48.102;-1.652;2023-10-31T11:46:05;100382.69;;;15.94;82.79
39949;BME280;29070;48.102;-1.652;2023-10-31T11:51:05;100392.31;;;16.00;82.71
39949;BME280;29070;48.102;-1.652;2023-10-31T11:56:06;100383.97;;;16.09;82.72
39949;BME280;29070;48.102;-1.652;2023-10-31T12:01:10;100387.59;;;16.03;82.17
39949;BME280;29070;48.102;-1.652;2023-10-31T12:06:10;100390.56;;;16.06;82.12
39949;BME280;29070;48.102;-1.652;2023-10-31T12:11:17;100387.19;;;16.11;82.15
39949;BME280;29070;48.102;-1.652;2023-10-31T12:16:24;100385.59;;;16.10;81.70
39949;BME280;29070;48.102;-1.652;2023-10-31T12:21:35;100382.94;;;16.10;81.44
39949;BME280;29070;48.102;-1.652;2023-10-31T12:26:36;100380.94;;;16.17;81.31
39949;BME280;29070;48.102;-1.652;2023-10-31T12:31:52;100374.91;;;16.22;81.30
39949;BME280;29070;48.102;-1.652;2023-10-31T12:36:54;100382.22;;;16.31;81.08
39949;BME280;29070;48.102;-1.652;2023-10-31T12:41:56;100383.19;;;16.25;80.47
39949;BME280;29070;48.102;-1.652;2023-10-31T12:46:57;100393.78;;;16.25;80.33
39949;BME280;29070;48.102;-1.652;2023-10-31T12:52:03;100391.03;;;16.20;80.31
39949;BME280;29070;48.102;-1.652;2023-10-31T12:57:04;100391.88;;;16.20;78.85
39949;BME280;29070;48.102;-1.652;2023-10-31T13:02:05;100392.34;;;16.17;80.21
39949;BME280;29070;48.102;-1.652;2023-10-31T13:07:07;100390.06;;;16.09;79.97
39949;BME280;29070;48.102;-1.652;2023-10-31T13:12:08;100383.97;;;16.09;79.73
39949;BME280;29070;48.102;-1.652;2023-10-31T13:17:09;100386.25;;;16.17;79.73
39949;BME280;29070;48.102;-1.652;2023-10-31T13:22:09;100381.00;;;16.22;79.34
39949;BME280;29070;48.102;-1.652;2023-10-31T13:27:10;100379.19;;;16.23;79.25
39949;BME280;29070;48.102;-1.652;2023-10-31T13:32:16;100376.78;;;16.21;79.00
39949;BME280;29070;48.102;-1.652;2023-10-31T13:37:16;100379.97;;;16.23;78.92
39949;BME280;29070;48.102;-1.652;2023-10-31T13:42:16;100365.38;;;16.20;78.88
39949;BME280;29070;48.102;-1.652;2023-10-31T13:47:17;100362.41;;;16.17;78.72
39949;BME280;29070;48.102;-1.652;2023-10-31T13:52:17;100356.06;;;16.18;78.58
39949;BME280;29070;48.102;-1.652;2023-10-31T13:57:18;100361.25;;;16.13;78.50
39949;BME280;29070;48.102;-1.652;2023-10-31T14:02:18;100361.69;;;16.05;78.65
39949;BME280;29070;48.102;-1.652;2023-10-31T14:07:22;100360.38;;;15.90;78.57
39949;BME280;29070;48.102;-1.652;2023-10-31T14:12:24;100373.34;;;15.75;78.61
39949;BME280;29070;48.102;-1.652;2023-10-31T14:17:25;100373.22;;;15.70;78.71
39949;BME280;29070;48.102;-1.652;2023-10-31T14:22:25;100363.44;;;15.70;79.01
39949;BME280;29070;48.102;-1.652;2023-10-31T14:27:25;100369.66;;;15.76;79.70
39949;BME280;29070;48.102;-1.652;2023-10-31T14:32:26;100359.19;;;15.81;79.68
39949;BME280;29070;48.102;-1.652;2023-10-31T14:37:26;100365.16;;;15.76;79.52
39949;BME280;29070;48.102;-1.652;2023-10-31T14:42:27;100357.56;;;15.80;79.62
39949;BME280;29070;48.102;-1.652;2023-10-31T14:47:28;100346.09;;;15.74;79.73
39949;BME280;29070;48.102;-1.652;2023-10-31T14:52:28;100347.50;;;15.65;79.49
39949;BME280;29070;48.102;-1.652;2023-10-31T14:57:29;100337.50;;;15.55;79.48
39949;BME280;29070;48.102;-1.652;2023-10-31T15:02:29;100344.41;;;15.56;79.22
39949;BME280;29070;48.102;-1.652;2023-10-31T15:07:29;100341.91;;;15.50;79.55
39949;BME280;29070;48.102;-1.652;2023-10-31T15:12:30;100330.78;;;15.48;79.27
39949;BME280;29070;48.102;-1.652;2023-10-31T15:17:30;100331.22;;;15.44;79.18
39949;BME280;29070;48.102;-1.652;2023-10-31T15:22:32;100334.59;;;15.40;78.92
39949;BME280;29070;48.102;-1.652;2023-10-31T15:27:32;100340.34;;;15.37;78.89
39949;BME280;29070;48.102;-1.652;2023-10-31T15:32:32;100350.13;;;15.36;78.92
39949;BME280;29070;48.102;-1.652;2023-10-31T15:37:35;100336.31;;;15.34;78.90
39949;BME280;29070;48.102;-1.652;2023-10-31T15:42:35;100330.25;;;15.34;78.95
39949;BME280;29070;48.102;-1.652;2023-10-31T15:47:36;100337.38;;;15.33;78.79
39949;BME280;29070;48.102;-1.652;2023-10-31T15:52:36;100332.78;;;15.29;78.89
39949;BME280;29070;48.102;-1.652;2023-10-31T15:57:36;100328.56;;;15.28;78.98
39949;BME280;29070;48.102;-1.652;2023-10-31T16:02:37;100327.16;;;15.25;79.15
39949;BME280;29070;48.102;-1.652;2023-10-31T16:07:38;100313.84;;;15.20;78.87
39949;BME280;29070;48.102;-1.652;2023-10-31T16:12:39;100326.16;;;15.14;79.19
39949;BME280;29070;48.102;-1.652;2023-10-31T16:17:40;100325.03;;;15.10;79.06
39949;BME280;29070;48.102;-1.652;2023-10-31T16:22:40;100318.63;;;15.06;79.24
39949;BME280;29070;48.102;-1.652;2023-10-31T16:27:40;100315.38;;;15.04;79.32
39949;BME280;29070;48.102;-1.652;2023-10-31T16:32:41;100319.09;;;15.03;79.71
39949;BME280;29070;48.102;-1.652;2023-10-31T16:37:41;100325.97;;;15.04;79.69
39949;BME280;29070;48.102;-1.652;2023-10-31T16:42:41;100323.56;;;15.02;79.60
39949;BME280;29070;48.102;-1.652;2023-10-31T16:47:42;100320.59;;;14.99;79.88
39949;BME280;29070;48.102;-1.652;2023-10-31T16:52:44;100322.66;;;14.97;79.72
39949;BME280;29070;48.102;-1.652;2023-10-31T16:57:44;100324.50;;;14.96;80.00
39949;BME280;29070;48.102;-1.652;2023-10-31T17:02:45;100325.22;;;14.92;79.68
39949;BME280;29070;48.102;-1.652;2023-10-31T17:07:45;100316.47;;;14.91;79.93
39949;BME280;29070;48.102;-1.652;2023-10-31T17:12:45;100321.97;;;14.90;79.95
39949;BME280;29070;48.102;-1.652;2023-10-31T17:17:46;100312.13;;;14.85;79.94
39949;BME280;29070;48.102;-1.652;2023-10-31T17:22:46;100312.34;;;14.83;80.05
39949;BME280;29070;48.102;-1.652;2023-10-31T17:27:47;100317.06;;;14.81;80.15
39949;BME280;29070;48.102;-1.652;2023-10-31T17:32:47;100328.44;;;14.82;80.25
39949;BME280;29070;48.102;-1.652;2023-10-31T17:37:48;100321.56;;;14.81;80.42
39949;BME280;29070;48.102;-1.652;2023-10-31T17:42:48;100329.16;;;14.77;80.39
39949;BME280;29070;48.102;-1.652;2023-10-31T17:47:48;100331.78;;;14.77;80.34
39949;BME280;29070;48.102;-1.652;2023-10-31T17:52:49;100335.22;;;14.78;80.32
39949;BME280;29070;48.102;-1.652;2023-10-31T17:57:49;100338.66;;;14.78;80.55
39949;BME280;29070;48.102;-1.652;2023-10-31T18:02:50;100339.94;;;14.76;80.47
39949;BME280;29070;48.102;-1.652;2023-10-31T18:07:50;100338.31;;;14.75;80.79
39949;BME280;29070;48.102;-1.652;2023-10-31T18:12:51;100323.03;;;14.77;80.58
39949;BME280;29070;48.102;-1.652;2023-10-31T18:17:52;100329.59;;;14.74;80.92
39949;BME280;29070;48.102;-1.652;2023-10-31T18:22:52;100328.53;;;14.75;80.91
39949;BME280;29070;48.102;-1.652;2023-10-31T18:27:52;100322.47;;;14.75;80.81
39949;BME280;29070;48.102;-1.652;2023-10-31T18:32:53;100326.38;;;14.72;80.71
39949;BME280;29070;48.102;-1.652;2023-10-31T18:37:53;100318.13;;;14.68;80.81
39949;BME280;29070;48.102;-1.652;2023-10-31T18:42:54;100311.56;;;14.71;80.96
39949;BME280;29070;48.102;-1.652;2023-10-31T18:47:55;100314.19;;;14.71;80.95
39949;BME280;29070;48.102;-1.652;2023-10-31T18:52:55;100308.34;;;14.69;81.22
39949;BME280;29070;48.102;-1.652;2023-10-31T18:57:56;100310.44;;;14.67;81.23
39949;BME280;29070;48.102;-1.652;2023-10-31T19:02:56;100306.72;;;14.68;81.09
39949;BME280;29070;48.102;-1.652;2023-10-31T19:07:57;100304.66;;;14.70;81.28
39949;BME280;29070;48.102;-1.652;2023-10-31T19:12:57;100307.56;;;14.68;81.15
39949;BME280;29070;48.102;-1.652;2023-10-31T19:17:57;100298.25;;;14.66;81.28
39949;BME280;29070;48.102;-1.652;2023-10-31T19:22:58;100295.59;;;14.66;81.39
39949;BME280;29070;48.102;-1.652;2023-10-31T19:28:00;100282.06;;;14.62;81.39
39949;BME280;29070;48.102;-1.652;2023-10-31T19:33:01;100283.75;;;14.57;81.48
39949;BME280;29070;48.102;-1.652;2023-10-31T19:38:02;100284.44;;;14.52;81.26
39949;BME280;29070;48.102;-1.652;2023-10-31T19:43:02;100281.47;;;14.48;81.51
39949;BME280;29070;48.102;-1.652;2023-10-31T19:48:04;100276.66;;;14.45;81.54
39949;BME280;29070;48.102;-1.652;2023-10-31T19:53:04;100276.09;;;14.43;81.71
39949;BME280;29070;48.102;-1.652;2023-10-31T19:58:05;100268.19;;;14.43;81.56
39949;BME280;29070;48.102;-1.652;2023-10-31T20:03:05;100259.31;;;14.38;81.75
39949;BME280;29070;48.102;-1.652;2023-10-31T20:08:05;100261.63;;;14.34;81.83
39949;BME280;29070;48.102;-1.652;2023-10-31T20:13:06;100264.75;;;14.31;81.97
39949;BME280;29070;48.102;-1.652;2023-10-31T20:18:06;100255.44;;;14.28;82.11
39949;BME280;29070;48.102;-1.652;2023-10-31T20:23:07;100257.50;;;14.26;82.29
39949;BME280;29070;48.102;-1.652;2023-10-31T20:28:07;100252.22;;;14.26;82.28
39949;BME280;29070;48.102;-1.652;2023-10-31T20:33:07;100250.84;;;14.24;82.32
39949;BME280;29070;48.102;-1.652;2023-10-31T20:38:08;100244.75;;;14.23;82.47
39949;BME280;29070;48.102;-1.652;2023-10-31T20:43:08;100243.72;;;14.24;82.73
39949;BME280;29070;48.102;-1.652;2023-10-31T20:48:08;100235.94;;;14.29;82.83
39949;BME280;29070;48.102;-1.652;2023-10-31T20:53:09;100238.56;;;14.29;82.73
39949;BME280;29070;48.102;-1.652;2023-10-31T20:58:09;100232.84;;;14.33;82.83
39949;BME280;29070;48.102;-1.652;2023-10-31T21:03:10;100236.84;;;14.35;83.14
39949;BME280;29070;48.102;-1.652;2023-10-31T21:08:12;100232.84;;;14.33;83.08
39949;BME280;29070;48.102;-1.652;2023-10-31T21:13:12;100231.00;;;14.33;82.96
39949;BME280;29070;48.102;-1.652;2023-10-31T21:18:12;100239.94;;;14.32;83.38
39949;BME280;29070;48.102;-1.652;2023-10-31T21:23:16;100220.88;;;14.30;83.53
39949;BME280;29070;48.102;-1.652;2023-10-31T21:28:17;100219.84;;;14.31;83.44
39949;BME280;29070;48.102;-1.652;2023-10-31T21:33:17;100222.28;;;14.33;83.71
39949;BME280;29070;48.102;-1.652;2023-10-31T21:38:17;100210.31;;;14.30;83.69
39949;BME280;29070;48.102;-1.652;2023-10-31T21:43:17;100209.75;;;14.28;83.81
39949;BME280;29070;48.102;-1.652;2023-10-31T21:48:18;100209.75;;;14.28;83.83
39949;BME280;29070;48.102;-1.652;2023-10-31T21:53:18;100201.50;;;14.24;83.96
39949;BME280;29070;48.102;-1.652;2023-10-31T21:58:20;100203.34;;;14.24;84.19
39949;BME280;29070;48.102;-1.652;2023-10-31T22:03:20;100206.44;;;14.21;84.33
39949;BME280;29070;48.102;-1.652;2023-10-31T22:08:22;100188.53;;;14.23;84.13
39949;BME280;29070;48.102;-1.652;2023-10-31T22:13:22;100167.88;;;14.20;84.38
39949;BME280;29070;48.102;-1.652;2023-10-31T22:18:23;100175.78;;;14.20;84.54
39949;BME280;29070;48.102;-1.652;2023-10-31T22:23:24;100172.34;;;14.19;84.47
39949;BME280;29070;48.102;-1.652;2023-10-31T22:28:25;100178.91;;;14.17;84.80
39949;BME280;29070;48.102;-1.652;2023-10-31T22:33:26;100168.81;;;14.14;84.67
39949;BME280;29070;48.102;-1.652;2023-10-31T22:38:26;100167.53;;;14.16;85.07
39949;BME280;29070;48.102;-1.652;2023-10-31T22:43:26;100158.25;;;14.14;85.05
39949;BME280;29070;48.102;-1.652;2023-10-31T22:48:27;100157.13;;;14.09;84.90
39949;BME280;29070;48.102;-1.652;2023-10-31T22:53:27;100152.41;;;14.11;85.02
39949;BME280;29070;48.102;-1.652;2023-10-31T22:58:30;100141.63;;;14.13;85.33
39949;BME280;29070;48.102;-1.652;2023-10-31T23:03:30;100134.72;;;14.12;85.39
39949;BME280;29070;48.102;-1.652;2023-10-31T23:08:30;100138.16;;;14.13;85.26
39949;BME280;29070;48.102;-1.652;2023-10-31T23:13:31;100126.81;;;14.12;85.34
39949;BME280;29070;48.102;-1.652;2023-10-31T23:18:31;100127.03;;;14.10;85.45
39949;BME280;29070;48.102;-1.652;2023-10-31T23:23:31;100118.09;;;14.11;85.54
39949;BME280;29070;48.102;-1.652;2023-10-31T23:28:32;100105.34;;;14.08;85.32
39949;BME280;29070;48.102;-1.652;2023-10-31T23:33:34;100098.22;;;14.09;85.54
39949;BME280;29070;48.102;-1.652;2023-10-31T23:38:35;100093.78;;;14.09;85.42
39949;BME280;29070;48.102;-1.652;2023-10-31T23:43:35;100085.03;;;14.09;85.32
39949;BME280;29070;48.102;-1.652;2023-10-31T23:48:35;100078.75;;;14.10;85.28
39949;BME280;29070;48.102;-1.652;2023-10-31T23:53:36;100060.50;;;14.08;85.57
39949;BME280;29070;48.102;-1.652;2023-10-31T23:58:36;100049.16;;;14.08;85.64
